createdAt,value
2023-04-16T00:00:10.000Z,46.34408602150579
2023-04-16T00:01:12.000Z,46.34408602150579
2023-04-16T00:02:14.000Z,45.91397849462406
2023-04-16T00:03:17.000Z,46.45161290322622
2023-04-16T00:04:19.000Z,46.02150537634449
2023-04-16T00:05:21.000Z,46.66666666666708
2023-04-16T00:06:24.000Z,46.98924731182838
2023-04-16T00:07:26.000Z,46.236559139785356
2023-04-16T00:08:29.000Z,46.236559139785356
2023-04-16T00:09:31.000Z,46.34408602150579
2023-04-16T00:10:33.000Z,46.45161290322622
2023-04-16T00:11:36.000Z,46.774193548387515
2023-04-16T00:12:38.000Z,40.53763440860247
2023-04-16T00:13:40.000Z,40.53763440860247
2023-04-16T00:14:43.000Z,41.18279569892506
2023-04-16T00:15:45.000Z,41.07526881720463
2023-04-16T00:16:47.000Z,41.61290322580679
2023-04-16T00:17:49.000Z,40.9677419354842
2023-04-16T00:18:52.000Z,40.752688172043335
2023-04-16T00:19:54.000Z,40.215053763441176
2023-04-16T00:20:57.000Z,41.07526881720463
2023-04-16T00:21:59.000Z,40.215053763441176
2023-04-16T00:23:01.000Z,41.61290322580679
2023-04-16T00:24:04.000Z,40.43010752688204
2023-04-16T00:25:06.000Z,40.9677419354842
2023-04-16T00:26:08.000Z,43.87096774193586
2023-04-16T00:27:11.000Z,46.02150537634449
2023-04-16T00:28:13.000Z,45.91397849462406
2023-04-16T00:29:15.000Z,45.91397849462406
2023-04-16T00:30:18.000Z,46.45161290322622
2023-04-16T00:31:20.000Z,45.91397849462406
2023-04-16T00:32:23.000Z,46.129032258064925
2023-04-16T00:33:25.000Z,46.02150537634449
2023-04-16T00:34:27.000Z,46.236559139785356
2023-04-16T00:35:30.000Z,46.66666666666708
2023-04-16T00:36:32.000Z,46.45161290322622
2023-04-16T00:37:34.000Z,46.34408602150579
2023-04-16T00:38:37.000Z,47.20430107526924
2023-04-16T00:39:39.000Z,43.118279569892835
2023-04-16T00:40:41.000Z,40.752688172043335
2023-04-16T00:41:44.000Z,41.61290322580679
2023-04-16T00:42:46.000Z,41.290322580645494
2023-04-16T00:43:48.000Z,40.6451612903229
2023-04-16T00:44:51.000Z,40.00000000000031
2023-04-16T00:45:53.000Z,40.32258064516161
2023-04-16T00:46:55.000Z,40.107526881720744
2023-04-16T00:47:58.000Z,40.215053763441176
2023-04-16T00:49:00.000Z,40.53763440860247
2023-04-16T00:50:02.000Z,41.07526881720463
2023-04-16T00:51:05.000Z,40.6451612903229
2023-04-16T00:52:07.000Z,40.43010752688204
2023-04-16T00:53:09.000Z,40.43010752688204
2023-04-16T00:54:12.000Z,45.3763440860219
2023-04-16T00:55:14.000Z,45.3763440860219
2023-04-16T00:56:16.000Z,45.91397849462406
2023-04-16T00:57:19.000Z,45.91397849462406
2023-04-16T00:58:21.000Z,49.56989247311874
2023-04-16T00:59:23.000Z,46.34408602150579
2023-04-16T01:00:26.000Z,45.91397849462406
2023-04-16T01:01:28.000Z,46.02150537634449
2023-04-16T01:02:30.000Z,45.91397849462406
2023-04-16T01:03:33.000Z,46.236559139785356
2023-04-16T01:04:35.000Z,45.91397849462406
2023-04-16T01:05:37.000Z,46.66666666666708
2023-04-16T01:06:40.000Z,46.45161290322622
2023-04-16T01:07:42.000Z,40.00000000000031
2023-04-16T01:08:44.000Z,40.00000000000031
2023-04-16T01:09:47.000Z,40.00000000000031
2023-04-16T01:10:49.000Z,40.00000000000031
2023-04-16T01:11:51.000Z,40.00000000000031
2023-04-16T01:12:54.000Z,40.00000000000031
2023-04-16T01:13:56.000Z,40.107526881720744
2023-04-16T01:14:59.000Z,40.107526881720744
2023-04-16T01:16:01.000Z,40.107526881720744
2023-04-16T01:17:03.000Z,40.53763440860247
2023-04-16T01:18:10.000Z,40.215053763441176
2023-04-16T01:19:13.000Z,45.91397849462406
2023-04-16T01:20:15.000Z,46.02150537634449
2023-04-16T01:21:17.000Z,45.6989247311832
2023-04-16T01:22:25.000Z,45.80645161290363
2023-04-16T01:23:27.000Z,46.236559139785356
2023-04-16T01:24:29.000Z,46.55913978494665
2023-04-16T01:25:32.000Z,46.236559139785356
2023-04-16T01:26:34.000Z,46.66666666666708
2023-04-16T01:27:36.000Z,46.236559139785356
2023-04-16T01:28:39.000Z,46.236559139785356
2023-04-16T01:29:41.000Z,46.45161290322622
2023-04-16T01:30:44.000Z,40.9677419354842
2023-04-16T01:31:46.000Z,40.107526881720744
2023-04-16T01:32:48.000Z,39.89247311827988
2023-04-16T01:33:51.000Z,40.53763440860247
2023-04-16T01:34:53.000Z,40.00000000000031
2023-04-16T01:35:55.000Z,40.00000000000031
2023-04-16T01:36:58.000Z,39.89247311827988
2023-04-16T01:38:00.000Z,40.00000000000031
2023-04-16T01:39:02.000Z,39.89247311827988
2023-04-16T01:40:05.000Z,39.78494623655945
2023-04-16T01:41:07.000Z,39.78494623655945
2023-04-16T01:42:09.000Z,39.78494623655945
2023-04-16T01:43:12.000Z,39.569892473118585
2023-04-16T01:44:14.000Z,45.6989247311832
2023-04-16T01:45:17.000Z,47.419354838710106
2023-04-16T01:46:19.000Z,47.09677419354881
2023-04-16T01:47:21.000Z,46.129032258064925
2023-04-16T01:48:24.000Z,45.91397849462406
2023-04-16T01:49:26.000Z,46.129032258064925
2023-04-16T01:50:28.000Z,45.91397849462406
2023-04-16T01:51:31.000Z,46.129032258064925
2023-04-16T01:52:33.000Z,45.91397849462406
2023-04-16T01:53:35.000Z,46.02150537634449
2023-04-16T01:54:38.000Z,46.45161290322622
2023-04-16T01:55:40.000Z,46.45161290322622
2023-04-16T01:56:42.000Z,46.66666666666708
2023-04-16T01:57:45.000Z,40.00000000000031
2023-04-16T01:58:47.000Z,39.78494623655945
2023-04-16T01:59:49.000Z,40.107526881720744
2023-04-16T02:00:52.000Z,40.00000000000031
2023-04-16T02:01:54.000Z,39.67741935483902
2023-04-16T02:02:56.000Z,39.89247311827988
2023-04-16T02:03:59.000Z,40.215053763441176
2023-04-16T02:05:01.000Z,39.89247311827988
2023-04-16T02:06:04.000Z,40.00000000000031
2023-04-16T02:07:06.000Z,39.78494623655945
2023-04-16T02:08:08.000Z,40.00000000000031
2023-04-16T02:09:11.000Z,39.67741935483902
2023-04-16T02:10:13.000Z,40.6451612903229
2023-04-16T02:11:15.000Z,45.91397849462406
2023-04-16T02:12:18.000Z,45.80645161290363
2023-04-16T02:13:20.000Z,46.45161290322622
2023-04-16T02:14:22.000Z,45.80645161290363
2023-04-16T02:15:25.000Z,46.02150537634449
2023-04-16T02:16:27.000Z,45.91397849462406
2023-04-16T02:17:29.000Z,45.80645161290363
2023-04-16T02:18:32.000Z,46.236559139785356
2023-04-16T02:19:34.000Z,46.45161290322622
2023-04-16T02:20:37.000Z,46.236559139785356
2023-04-16T02:21:40.000Z,46.129032258064925
2023-04-16T02:22:42.000Z,46.774193548387515
2023-04-16T02:23:44.000Z,44.19354838709715
2023-04-16T02:24:46.000Z,40.86021505376377
2023-04-16T02:25:49.000Z,40.32258064516161
2023-04-16T02:26:51.000Z,42.79569892473154
2023-04-16T02:27:53.000Z,40.107526881720744
2023-04-16T02:28:56.000Z,40.00000000000031
2023-04-16T02:29:58.000Z,40.00000000000031
2023-04-16T02:31:00.000Z,40.00000000000031
2023-04-16T02:32:03.000Z,40.43010752688204
2023-04-16T02:33:05.000Z,39.89247311827988
2023-04-16T02:34:08.000Z,39.78494623655945
2023-04-16T02:35:10.000Z,39.67741935483902
2023-04-16T02:36:12.000Z,40.752688172043335
2023-04-16T02:37:15.000Z,42.68817204301111
2023-04-16T02:38:17.000Z,45.91397849462406
2023-04-16T02:39:19.000Z,45.483870967742334
2023-04-16T02:40:22.000Z,49.56989247311874
2023-04-16T02:41:24.000Z,46.236559139785356
2023-04-16T02:42:26.000Z,45.80645161290363
2023-04-16T02:43:29.000Z,45.91397849462406
2023-04-16T02:44:31.000Z,47.09677419354881
2023-04-16T02:45:33.000Z,45.91397849462406
2023-04-16T02:46:36.000Z,46.774193548387515
2023-04-16T02:47:38.000Z,45.6989247311832
2023-04-16T02:48:40.000Z,46.34408602150579
2023-04-16T02:49:43.000Z,47.7419354838714
2023-04-16T02:50:45.000Z,46.55913978494665
2023-04-16T02:51:47.000Z,40.53763440860247
2023-04-16T02:52:50.000Z,40.00000000000031
2023-04-16T02:53:52.000Z,39.89247311827988
2023-04-16T02:54:55.000Z,40.107526881720744
2023-04-16T02:55:57.000Z,40.53763440860247
2023-04-16T02:56:59.000Z,40.215053763441176
2023-04-16T02:58:02.000Z,40.00000000000031
2023-04-16T02:59:04.000Z,40.32258064516161
2023-04-16T03:00:06.000Z,40.107526881720744
2023-04-16T03:01:09.000Z,40.00000000000031
2023-04-16T03:02:11.000Z,42.473118279570244
2023-04-16T03:03:14.000Z,40.00000000000031
2023-04-16T03:04:16.000Z,40.53763440860247
2023-04-16T03:05:19.000Z,46.02150537634449
2023-04-16T03:06:21.000Z,45.6989247311832
2023-04-16T03:07:23.000Z,45.91397849462406
2023-04-16T03:08:26.000Z,45.91397849462406
2023-04-16T03:09:28.000Z,45.91397849462406
2023-04-16T03:10:30.000Z,45.91397849462406
2023-04-16T03:11:33.000Z,46.66666666666708
2023-04-16T03:12:35.000Z,45.91397849462406
2023-04-16T03:13:37.000Z,46.45161290322622
2023-04-16T03:14:40.000Z,46.45161290322622
2023-04-16T03:15:42.000Z,46.66666666666708
2023-04-16T03:16:44.000Z,46.45161290322622
2023-04-16T03:17:47.000Z,46.55913978494665
2023-04-16T03:18:49.000Z,40.00000000000031
2023-04-16T03:19:52.000Z,40.215053763441176
2023-04-16T03:20:54.000Z,40.00000000000031
2023-04-16T03:21:57.000Z,40.86021505376377
2023-04-16T03:22:59.000Z,45.91397849462406
2023-04-16T03:24:01.000Z,48.81720430107572
2023-04-16T03:25:04.000Z,44.73118279569931
2023-04-16T03:26:06.000Z,40.9677419354842
2023-04-16T03:27:09.000Z,40.215053763441176
2023-04-16T03:28:11.000Z,41.50537634408636
2023-04-16T03:29:13.000Z,40.53763440860247
2023-04-16T03:30:16.000Z,40.6451612903229
2023-04-16T03:31:18.000Z,43.97849462365629
2023-04-16T03:32:20.000Z,46.02150537634449
2023-04-16T03:33:23.000Z,45.91397849462406
2023-04-16T03:34:25.000Z,45.80645161290363
2023-04-16T03:35:27.000Z,49.247311827957446
2023-04-16T03:36:30.000Z,45.91397849462406
2023-04-16T03:37:32.000Z,46.88172043010795
2023-04-16T03:38:35.000Z,47.09677419354881
2023-04-16T03:39:37.000Z,48.27956989247356
2023-04-16T03:40:39.000Z,55.05376344086076
2023-04-16T03:41:42.000Z,46.98924731182838
2023-04-16T03:42:44.000Z,48.81720430107572
2023-04-16T03:43:47.000Z,53.01075268817256
2023-04-16T03:44:49.000Z,52.688172043011264
2023-04-16T03:45:51.000Z,62.903225806452284
2023-04-16T03:46:54.000Z,62.79569892473185
2023-04-16T03:47:56.000Z,58.709677419355444
2023-04-16T03:48:59.000Z,47.52688172043054
2023-04-16T03:50:01.000Z,46.98924731182838
2023-04-16T03:51:03.000Z,52.04301075268867
2023-04-16T03:52:06.000Z,48.494623655914424
2023-04-16T03:53:08.000Z,58.60215053763501
2023-04-16T03:54:10.000Z,53.22580645161342
2023-04-16T03:55:13.000Z,44.19354838709715
2023-04-16T03:56:15.000Z,60.645161290323216
2023-04-16T03:57:18.000Z,48.602150537634856
2023-04-16T03:58:20.000Z,51.07526881720479
2023-04-16T03:59:22.000Z,53.54838709677472
2023-04-16T04:00:25.000Z,59.462365591398466
2023-04-16T04:01:27.000Z,49.677419354839174
2023-04-16T04:02:30.000Z,58.38709677419415
2023-04-16T04:03:32.000Z,50.21505376344133
2023-04-16T04:04:34.000Z,49.139784946237015
2023-04-16T04:05:37.000Z,48.81720430107572
2023-04-16T04:06:39.000Z,58.172043010753285
2023-04-16T04:07:42.000Z,59.13978494623717
2023-04-16T04:08:44.000Z,46.98924731182838
2023-04-16T04:09:46.000Z,49.46236559139831
2023-04-16T04:10:49.000Z,51.82795698924781
2023-04-16T04:11:51.000Z,55.26881720430163
2023-04-16T04:12:54.000Z,48.27956989247356
2023-04-16T04:13:56.000Z,56.77419354838767
2023-04-16T04:14:58.000Z,52.150537634409105
2023-04-16T04:16:01.000Z,57.09677419354897
2023-04-16T04:17:03.000Z,44.83870967741974
2023-04-16T04:18:06.000Z,44.51612903225845
2023-04-16T04:19:08.000Z,56.66666666666724
2023-04-16T04:20:10.000Z,55.91397849462422
2023-04-16T04:21:13.000Z,50.53763440860263
2023-04-16T04:22:20.000Z,53.76344086021558
2023-04-16T04:23:23.000Z,50.322580645161764
2023-04-16T04:24:25.000Z,52.688172043011264
2023-04-16T04:25:27.000Z,50.53763440860263
2023-04-16T04:26:30.000Z,47.7419354838714
2023-04-16T04:27:32.000Z,47.419354838710106
2023-04-16T04:28:34.000Z,50.967741935484355
2023-04-16T04:29:37.000Z,48.27956989247356
2023-04-16T04:30:39.000Z,52.25806451612954
2023-04-16T04:31:42.000Z,52.25806451612954
2023-04-16T04:32:44.000Z,50.64516129032306
2023-04-16T04:33:47.000Z,48.494623655914424
2023-04-16T04:34:49.000Z,49.89247311828004
2023-04-16T04:35:51.000Z,44.83870967741974
2023-04-16T04:36:54.000Z,50.75268817204349
2023-04-16T04:37:56.000Z,47.09677419354881
2023-04-16T04:38:58.000Z,50.86021505376392
2023-04-16T04:40:01.000Z,46.34408602150579
2023-04-16T04:41:03.000Z,42.36559139784981
2023-04-16T04:42:06.000Z,48.92473118279615
2023-04-16T04:43:08.000Z,51.07526881720479
2023-04-16T04:44:10.000Z,50.967741935484355
2023-04-16T04:45:13.000Z,44.51612903225845
2023-04-16T04:46:15.000Z,48.92473118279615
2023-04-16T04:47:17.000Z,53.76344086021558
2023-04-16T04:48:20.000Z,40.53763440860247
2023-04-16T04:49:22.000Z,47.52688172043054
2023-04-16T04:50:24.000Z,48.17204301075313
2023-04-16T04:51:27.000Z,48.81720430107572
2023-04-16T04:52:29.000Z,48.17204301075313
2023-04-16T04:53:36.000Z,52.25806451612954
2023-04-16T04:54:39.000Z,47.63440860215097
2023-04-16T04:55:41.000Z,47.20430107526924
2023-04-16T04:56:44.000Z,51.72043010752738
2023-04-16T04:57:46.000Z,50.00000000000047
2023-04-16T04:58:49.000Z,50.21505376344133
2023-04-16T04:59:51.000Z,47.956989247312265
2023-04-16T05:00:53.000Z,52.25806451612954
2023-04-16T05:01:56.000Z,48.494623655914424
2023-04-16T05:03:03.000Z,43.0107526881724
2023-04-16T05:04:05.000Z,41.935483870968085
2023-04-16T05:05:08.000Z,50.86021505376392
2023-04-16T05:06:10.000Z,50.53763440860263
2023-04-16T05:07:13.000Z,49.46236559139831
2023-04-16T05:08:15.000Z,46.129032258064925
2023-04-16T05:09:17.000Z,43.3333333333337
2023-04-16T05:10:20.000Z,45.91397849462406
2023-04-16T05:11:22.000Z,46.236559139785356
2023-04-16T05:12:25.000Z,47.63440860215097
2023-04-16T05:13:27.000Z,46.55913978494665
2023-04-16T05:14:29.000Z,49.139784946237015
2023-04-16T05:15:32.000Z,48.494623655914424
2023-04-16T05:16:34.000Z,46.55913978494665
2023-04-16T05:17:37.000Z,46.34408602150579
2023-04-16T05:18:39.000Z,47.956989247312265
2023-04-16T05:19:41.000Z,47.52688172043054
2023-04-16T05:20:44.000Z,52.4731182795704
2023-04-16T05:21:46.000Z,47.52688172043054
2023-04-16T05:22:48.000Z,52.90322580645213
2023-04-16T05:23:51.000Z,55.37634408602206
2023-04-16T05:24:53.000Z,53.11827956989299
2023-04-16T05:25:56.000Z,43.97849462365629
2023-04-16T05:26:58.000Z,43.54838709677456
2023-04-16T05:28:00.000Z,44.408602150538016
2023-04-16T05:29:03.000Z,49.89247311828004
2023-04-16T05:30:05.000Z,50.00000000000047
2023-04-16T05:31:07.000Z,47.52688172043054
2023-04-16T05:32:10.000Z,48.92473118279615
2023-04-16T05:33:12.000Z,43.44086021505413
2023-04-16T05:34:15.000Z,44.19354838709715
2023-04-16T05:35:17.000Z,43.118279569892835
2023-04-16T05:36:19.000Z,50.53763440860263
2023-04-16T05:37:22.000Z,41.61290322580679
2023-04-16T05:38:24.000Z,48.70967741935529
2023-04-16T05:39:26.000Z,49.139784946237015
2023-04-16T05:40:29.000Z,46.45161290322622
2023-04-16T05:41:31.000Z,47.311827956989674
2023-04-16T05:42:34.000Z,47.52688172043054
2023-04-16T05:43:36.000Z,53.440860215054286
2023-04-16T05:44:38.000Z,46.55913978494665
2023-04-16T05:45:41.000Z,46.236559139785356
2023-04-16T05:46:43.000Z,48.81720430107572
2023-04-16T05:47:45.000Z,47.311827956989674
2023-04-16T05:48:48.000Z,46.55913978494665
2023-04-16T05:49:50.000Z,47.419354838710106
2023-04-16T05:50:53.000Z,48.27956989247356
2023-04-16T05:51:55.000Z,49.677419354839174
2023-04-16T05:52:57.000Z,42.473118279570244
2023-04-16T05:54:00.000Z,47.09677419354881
2023-04-16T05:55:02.000Z,44.73118279569931
2023-04-16T05:56:05.000Z,41.50537634408636
2023-04-16T05:57:07.000Z,44.408602150538016
2023-04-16T05:58:09.000Z,45.591397849462766
2023-04-16T05:59:12.000Z,60.86021505376408
2023-04-16T06:00:14.000Z,45.91397849462406
2023-04-16T06:01:17.000Z,43.54838709677456
2023-04-16T06:02:19.000Z,42.25806451612938
2023-04-16T06:03:21.000Z,57.2043010752694
2023-04-16T06:04:24.000Z,41.290322580645494
2023-04-16T06:05:26.000Z,47.7419354838714
2023-04-16T06:06:29.000Z,47.84946236559183
2023-04-16T06:07:31.000Z,48.92473118279615
2023-04-16T06:08:33.000Z,46.55913978494665
2023-04-16T06:09:36.000Z,46.55913978494665
2023-04-16T06:10:38.000Z,46.45161290322622
2023-04-16T06:11:40.000Z,52.04301075268867
2023-04-16T06:12:43.000Z,46.55913978494665
2023-04-16T06:13:45.000Z,51.18279569892522
2023-04-16T06:14:48.000Z,48.0645161290327
2023-04-16T06:15:50.000Z,47.311827956989674
2023-04-16T06:16:52.000Z,47.419354838710106
2023-04-16T06:17:55.000Z,50.430107526882196
2023-04-16T06:18:57.000Z,49.56989247311874
2023-04-16T06:20:00.000Z,44.301075268817584
2023-04-16T06:21:02.000Z,50.430107526882196
2023-04-16T06:22:04.000Z,49.784946236559605
2023-04-16T06:23:07.000Z,46.45161290322622
2023-04-16T06:24:10.000Z,47.63440860215097
2023-04-16T06:25:12.000Z,47.419354838710106
2023-04-16T06:26:14.000Z,47.84946236559183
2023-04-16T06:27:17.000Z,46.02150537634449
2023-04-16T06:28:19.000Z,51.18279569892522
2023-04-16T06:29:21.000Z,44.62365591397888
2023-04-16T06:30:24.000Z,47.63440860215097
2023-04-16T06:31:26.000Z,46.55913978494665
2023-04-16T06:32:29.000Z,47.84946236559183
2023-04-16T06:33:31.000Z,47.7419354838714
2023-04-16T06:34:33.000Z,47.7419354838714
2023-04-16T06:35:35.000Z,50.64516129032306
2023-04-16T06:36:38.000Z,47.956989247312265
2023-04-16T06:37:40.000Z,48.92473118279615
2023-04-16T06:38:42.000Z,49.56989247311874
2023-04-16T06:39:45.000Z,48.494623655914424
2023-04-16T06:40:47.000Z,50.75268817204349
2023-04-16T06:41:49.000Z,49.247311827957446
2023-04-16T06:42:52.000Z,48.27956989247356
2023-04-16T06:43:54.000Z,48.602150537634856
2023-04-16T06:44:57.000Z,48.494623655914424
2023-04-16T06:45:59.000Z,46.66666666666708
2023-04-16T06:47:01.000Z,46.02150537634449
2023-04-16T06:48:04.000Z,54.19354838709731
2023-04-16T06:49:06.000Z,47.311827956989674
2023-04-16T06:50:08.000Z,46.02150537634449
2023-04-16T06:51:11.000Z,46.45161290322622
2023-04-16T06:52:13.000Z,47.09677419354881
2023-04-16T06:53:16.000Z,48.602150537634856
2023-04-16T06:54:18.000Z,49.46236559139831
2023-04-16T06:55:20.000Z,48.0645161290327
2023-04-16T06:56:23.000Z,57.634408602151126
2023-04-16T06:57:25.000Z,52.36559139784997
2023-04-16T06:58:27.000Z,46.129032258064925
2023-04-16T06:59:30.000Z,49.89247311828004
2023-04-16T07:00:32.000Z,46.55913978494665
2023-04-16T07:01:35.000Z,54.19354838709731
2023-04-16T07:02:37.000Z,46.98924731182838
2023-04-16T07:03:39.000Z,49.139784946237015
2023-04-16T07:04:42.000Z,46.55913978494665
2023-04-16T07:05:44.000Z,47.52688172043054
2023-04-16T07:06:46.000Z,48.0645161290327
2023-04-16T07:07:49.000Z,50.322580645161764
2023-04-16T07:08:51.000Z,47.956989247312265
2023-04-16T07:09:53.000Z,48.0645161290327
2023-04-16T07:10:56.000Z,47.956989247312265
2023-04-16T07:11:58.000Z,47.84946236559183
2023-04-16T07:13:00.000Z,45.91397849462406
2023-04-16T07:14:03.000Z,44.73118279569931
2023-04-16T07:15:05.000Z,43.54838709677456
2023-04-16T07:16:08.000Z,48.0645161290327
2023-04-16T07:17:10.000Z,43.54838709677456
2023-04-16T07:18:12.000Z,41.72043010752722
2023-04-16T07:19:15.000Z,47.419354838710106
2023-04-16T07:20:17.000Z,48.70967741935529
2023-04-16T07:21:19.000Z,49.139784946237015
2023-04-16T07:22:22.000Z,44.83870967741974
2023-04-16T07:23:24.000Z,52.4731182795704
2023-04-16T07:24:27.000Z,46.774193548387515
2023-04-16T07:25:29.000Z,43.65591397849499
2023-04-16T07:26:31.000Z,49.139784946237015
2023-04-16T07:27:34.000Z,49.784946236559605
2023-04-16T07:28:36.000Z,46.236559139785356
2023-04-16T07:29:39.000Z,47.09677419354881
2023-04-16T07:30:41.000Z,47.7419354838714
2023-04-16T07:31:43.000Z,50.967741935484355
2023-04-16T07:32:46.000Z,57.31182795698983
2023-04-16T07:33:48.000Z,54.8387096774199
2023-04-16T07:34:50.000Z,50.00000000000047
2023-04-16T07:35:53.000Z,48.0645161290327
2023-04-16T07:36:55.000Z,47.419354838710106
2023-04-16T07:37:58.000Z,49.247311827957446
2023-04-16T07:39:00.000Z,49.03225806451658
2023-04-16T07:40:02.000Z,47.7419354838714
2023-04-16T07:41:04.000Z,45.80645161290363
2023-04-16T07:42:07.000Z,42.25806451612938
2023-04-16T07:43:09.000Z,41.290322580645494
2023-04-16T07:44:12.000Z,44.19354838709715
2023-04-16T07:45:14.000Z,50.967741935484355
2023-04-16T07:46:16.000Z,44.83870967741974
2023-04-16T07:47:18.000Z,48.602150537634856
2023-04-16T07:48:21.000Z,46.45161290322622
2023-04-16T07:49:23.000Z,43.65591397849499
2023-04-16T07:50:25.000Z,42.25806451612938
2023-04-16T07:51:28.000Z,42.15053763440895
2023-04-16T07:52:30.000Z,43.118279569892835
2023-04-16T07:53:32.000Z,46.34408602150579
2023-04-16T07:54:36.000Z,48.70967741935529
2023-04-16T07:55:38.000Z,48.0645161290327
2023-04-16T07:56:40.000Z,52.4731182795704
2023-04-16T07:57:43.000Z,47.20430107526924
2023-04-16T07:58:45.000Z,46.45161290322622
2023-04-16T07:59:47.000Z,46.88172043010795
2023-04-16T08:00:50.000Z,47.09677419354881
2023-04-16T08:01:52.000Z,48.70967741935529
2023-04-16T08:02:54.000Z,47.419354838710106
2023-04-16T08:03:56.000Z,48.494623655914424
2023-04-16T08:04:59.000Z,52.04301075268867
2023-04-16T08:06:01.000Z,49.89247311828004
2023-04-16T08:07:03.000Z,43.118279569892835
2023-04-16T08:08:06.000Z,46.66666666666708
2023-04-16T08:09:08.000Z,48.81720430107572
2023-04-16T08:10:10.000Z,54.30107526881774
2023-04-16T08:11:13.000Z,51.72043010752738
2023-04-16T08:12:15.000Z,51.505376344086514
2023-04-16T08:13:17.000Z,49.139784946237015
2023-04-16T08:14:20.000Z,43.118279569892835
2023-04-16T08:15:22.000Z,52.58064516129083
2023-04-16T08:16:24.000Z,46.236559139785356
2023-04-16T08:17:27.000Z,46.88172043010795
2023-04-16T08:18:29.000Z,43.97849462365629
2023-04-16T08:19:31.000Z,43.763440860215425
2023-04-16T08:20:34.000Z,48.70967741935529
2023-04-16T08:21:36.000Z,51.82795698924781
2023-04-16T08:22:38.000Z,54.19354838709731
2023-04-16T08:23:41.000Z,47.7419354838714
2023-04-16T08:24:43.000Z,50.1075268817209
2023-04-16T08:25:46.000Z,47.7419354838714
2023-04-16T08:26:48.000Z,46.98924731182838
2023-04-16T08:27:50.000Z,57.74193548387156
2023-04-16T08:28:52.000Z,47.311827956989674
2023-04-16T08:29:55.000Z,47.956989247312265
2023-04-16T08:30:57.000Z,53.333333333333854
2023-04-16T08:32:00.000Z,48.27956989247356
2023-04-16T08:33:02.000Z,51.505376344086514
2023-04-16T08:34:04.000Z,47.52688172043054
2023-04-16T08:35:06.000Z,44.51612903225845
2023-04-16T08:36:09.000Z,43.0107526881724
2023-04-16T08:37:11.000Z,49.03225806451658
2023-04-16T08:38:13.000Z,50.322580645161764
2023-04-16T08:39:16.000Z,47.956989247312265
2023-04-16T08:40:18.000Z,54.516129032258604
2023-04-16T08:41:21.000Z,49.46236559139831
2023-04-16T08:42:23.000Z,47.7419354838714
2023-04-16T08:43:25.000Z,46.02150537634449
2023-04-16T08:44:27.000Z,47.419354838710106
2023-04-16T08:45:30.000Z,45.05376344086061
2023-04-16T08:46:32.000Z,46.88172043010795
2023-04-16T08:47:35.000Z,48.602150537634856
2023-04-16T08:48:37.000Z,48.38709677419399
2023-04-16T08:49:39.000Z,50.1075268817209
2023-04-16T08:50:42.000Z,47.20430107526924
2023-04-16T08:51:44.000Z,49.784946236559605
2023-04-16T08:52:46.000Z,50.21505376344133
2023-04-16T08:53:49.000Z,48.602150537634856
2023-04-16T08:54:51.000Z,49.677419354839174
2023-04-16T08:55:53.000Z,49.46236559139831
2023-04-16T08:56:56.000Z,51.72043010752738
2023-04-16T08:57:58.000Z,48.81720430107572
2023-04-16T08:59:00.000Z,49.139784946237015
2023-04-16T09:00:02.000Z,48.602150537634856
2023-04-16T09:01:05.000Z,44.62365591397888
2023-04-16T09:02:07.000Z,43.3333333333337
2023-04-16T09:03:09.000Z,44.946236559140175
2023-04-16T09:04:12.000Z,49.56989247311874
2023-04-16T09:05:14.000Z,56.12903225806508
2023-04-16T09:06:16.000Z,49.139784946237015
2023-04-16T09:07:19.000Z,54.73118279569947
2023-04-16T09:08:21.000Z,54.623655913979036
2023-04-16T09:09:23.000Z,53.65591397849515
2023-04-16T09:10:26.000Z,50.00000000000047
2023-04-16T09:11:28.000Z,55.37634408602206
2023-04-16T09:12:30.000Z,44.73118279569931
2023-04-16T09:13:32.000Z,48.494623655914424
2023-04-16T09:14:35.000Z,46.66666666666708
2023-04-16T09:15:37.000Z,46.98924731182838
2023-04-16T09:16:39.000Z,47.20430107526924
2023-04-16T09:17:42.000Z,48.27956989247356
2023-04-16T09:18:44.000Z,47.52688172043054
2023-04-16T09:19:46.000Z,47.7419354838714
2023-04-16T09:20:48.000Z,48.17204301075313
2023-04-16T09:21:51.000Z,48.38709677419399
2023-04-16T09:22:53.000Z,48.602150537634856
2023-04-16T09:23:55.000Z,51.72043010752738
2023-04-16T09:24:57.000Z,49.03225806451658
2023-04-16T09:26:00.000Z,49.03225806451658
2023-04-16T09:27:02.000Z,48.494623655914424
2023-04-16T09:28:04.000Z,51.18279569892522
2023-04-16T09:29:07.000Z,44.51612903225845
2023-04-16T09:30:09.000Z,45.26881720430147
2023-04-16T09:31:11.000Z,43.87096774193586
2023-04-16T09:32:13.000Z,44.51612903225845
2023-04-16T09:33:16.000Z,47.7419354838714
2023-04-16T09:34:18.000Z,46.236559139785356
2023-04-16T09:35:20.000Z,46.55913978494665
2023-04-16T09:36:23.000Z,44.19354838709715